createdAt,value
2018-02-24T00:00:10.514Z,98332.14
2018-02-24T00:02:38.067Z,98334.30
2018-02-24T00:05:09.607Z,98334.29
2018-02-24T00:07:37.777Z,98329.15
2018-02-24T00:10:06.456Z,98335.17
2018-02-24T00:12:39.076Z,98331.29
2018-02-24T00:15:06.779Z,98326.57
2018-02-24T00:17:34.374Z,98322.28
2018-02-24T00:20:01.964Z,98318.42
2018-02-24T00:22:29.514Z,98312.81
2018-02-24T00:24:57.183Z,98311.55
2018-02-24T00:27:24.747Z,98307.67
2018-02-24T00:29:52.234Z,98308.54
2018-02-24T00:32:19.786Z,98316.71
2018-02-24T00:34:47.518Z,98316.70
2018-02-24T00:37:15.010Z,98316.70
2018-02-24T00:39:42.478Z,98325.70
2018-02-24T00:42:10.033Z,98327.88
2018-02-24T00:44:37.663Z,98324.85
2018-02-24T00:47:05.350Z,98324.44
2018-02-24T00:49:32.816Z,98326.14
2018-02-24T00:52:00.261Z,98325.28
2018-02-24T00:54:28.394Z,98324.00
2018-02-24T00:56:55.995Z,98316.28
2018-02-24T00:59:23.457Z,98320.56
2018-02-24T01:01:50.944Z,98318.84
2018-02-24T01:04:18.387Z,98320.98
2018-02-24T01:06:45.916Z,98327.01
2018-02-24T01:09:13.359Z,98322.28
2018-02-24T01:11:40.815Z,98323.59
2018-02-24T01:14:08.270Z,98326.99
2018-02-24T01:16:35.734Z,98315.83
2018-02-24T01:19:03.209Z,98325.73
2018-02-24T01:21:30.659Z,98322.73
2018-02-24T01:23:58.133Z,98324.45
2018-02-24T01:26:25.583Z,98324.44
2018-02-24T01:28:53.056Z,98318.84
2018-02-24T01:31:20.542Z,98320.56
2018-02-24T01:33:47.989Z,98322.70
2018-02-24T01:36:15.446Z,98325.28
2018-02-24T01:38:42.895Z,98316.70
2018-02-24T01:41:10.348Z,98326.13
2018-02-24T01:43:37.820Z,98318.84
2018-02-24T01:46:05.417Z,98330.00
2018-02-24T01:48:32.877Z,98323.14
2018-02-24T01:51:00.366Z,98320.55
2018-02-24T01:53:27.824Z,98328.73
2018-02-24T01:55:55.302Z,98329.14
2018-02-24T01:58:22.765Z,98333.01
2018-02-24T02:00:50.214Z,98329.59
2018-02-24T02:03:17.999Z,98325.71
2018-02-24T02:05:45.458Z,98323.59
2018-02-24T02:08:12.994Z,98322.27
2018-02-24T02:10:40.483Z,98323.56
2018-02-24T02:13:07.923Z,98324.86
2018-02-24T02:15:35.423Z,98321.42
2018-02-24T02:18:02.892Z,98321.83
2018-02-24T02:20:30.334Z,98320.55
2018-02-24T02:22:57.823Z,98327.83
2018-02-24T02:25:25.278Z,98328.66
2018-02-24T02:27:52.922Z,98323.52
2018-02-24T02:30:20.380Z,98323.92
2018-02-24T02:32:47.836Z,98314.91
2018-02-24T02:35:15.320Z,98320.88
2018-02-24T02:37:42.791Z,98322.11
2018-02-24T02:40:10.250Z,98333.69
2018-02-24T02:45:42.635Z,98337.39
2018-02-24T02:48:10.218Z,98343.28
2018-02-24T02:50:37.732Z,98335.50
2018-02-24T02:53:05.272Z,98341.43
2018-02-24T02:55:32.815Z,98343.47
2018-02-24T02:58:00.346Z,98336.12
2018-02-24T03:00:27.877Z,98338.66
2018-02-24T03:02:55.378Z,98329.20
2018-02-24T03:05:22.902Z,98331.69
2018-02-24T03:07:50.433Z,98336.78
2018-02-24T03:10:17.929Z,98331.54
2018-02-24T03:12:45.450Z,98332.84
2018-02-24T03:15:12.940Z,98338.74
2018-02-24T03:17:40.460Z,98341.24
2018-02-24T03:20:07.989Z,98340.35
2018-02-24T03:22:35.506Z,98342.45
2018-02-24T03:25:03.000Z,98339.81
2018-02-24T03:27:30.515Z,98337.64
2018-02-24T03:29:58.021Z,98342.31
2018-02-24T03:32:25.536Z,98348.23
2018-02-24T03:34:53.137Z,98344.78
2018-02-24T03:37:20.666Z,98348.09
2018-02-24T03:39:48.179Z,98342.86
2018-02-24T03:42:15.723Z,98347.11
2018-02-24T03:44:43.296Z,98350.05
2018-02-24T03:47:10.856Z,98344.41
2018-02-24T03:49:38.391Z,98352.56
2018-02-24T03:52:05.892Z,98358.90
2018-02-24T03:54:33.749Z,98357.16
2018-02-24T03:57:01.336Z,98358.49
2018-02-24T03:59:28.901Z,98363.17
2018-02-24T04:01:56.405Z,98369.19
2018-02-24T04:04:23.931Z,98375.92
2018-02-24T04:06:51.449Z,98374.60
2018-02-24T04:09:18.954Z,98381.80
2018-02-24T04:11:46.474Z,98383.88
2018-02-24T04:14:14.009Z,98388.95
2018-02-24T04:16:41.524Z,98384.19
2018-02-24T04:19:09.232Z,98386.27
2018-02-24T04:21:36.760Z,98390.95
2018-02-24T04:24:04.267Z,98385.42
2018-02-24T04:26:31.792Z,98388.33
2018-02-24T04:28:59.328Z,98386.53
2018-02-24T04:31:26.841Z,98380.17
2018-02-24T04:33:54.521Z,98389.44
2018-02-24T04:36:22.025Z,98391.63
2018-02-24T04:38:49.524Z,98398.82
2018-02-24T04:41:17.058Z,98402.27
2018-02-24T04:43:44.569Z,98396.57
2018-02-24T04:46:12.096Z,98400.02
2018-02-24T04:48:39.737Z,98401.69
2018-02-24T04:51:07.307Z,98402.00
2018-02-24T04:53:34.822Z,98404.53
2018-02-24T04:56:02.330Z,98403.30
2018-02-24T04:58:29.891Z,98399.38
2018-02-24T05:00:57.512Z,98398.92
2018-02-24T05:03:25.039Z,98397.99
2018-02-24T05:05:52.518Z,98390.66
2018-02-24T05:08:20.051Z,98399.60
2018-02-24T05:10:47.610Z,98399.28
2018-02-24T05:13:15.131Z,98398.04
2018-02-24T05:15:42.688Z,98406.28
2018-02-24T05:18:10.213Z,98408.41
2018-02-24T05:20:37.740Z,98409.18
2018-02-24T05:23:05.298Z,98407.08
2018-02-24T05:25:32.824Z,98410.86
2018-02-24T05:28:00.318Z,98416.77
2018-02-24T05:30:27.842Z,98420.14
2018-02-24T05:32:55.414Z,98419.44
2018-02-24T05:35:22.932Z,98420.36
2018-02-24T05:37:50.460Z,98416.97
2018-02-24T05:40:18.066Z,98418.63
2018-02-24T05:42:45.599Z,98420.28
2018-02-24T05:45:13.123Z,98430.91
2018-02-24T05:47:40.694Z,98421.58
2018-02-24T05:50:08.219Z,98423.25
2018-02-24T05:52:35.763Z,98426.20
2018-02-24T05:55:03.318Z,98429.56
2018-02-24T05:57:30.838Z,98436.86
2018-02-24T05:59:58.368Z,98436.83
2018-02-24T06:02:25.900Z,98447.00
2018-02-24T06:04:53.400Z,98449.05
2018-02-24T06:07:20.936Z,98443.81
2018-02-24T06:09:48.452Z,98448.41
2018-02-24T06:12:15.985Z,98447.94
2018-02-24T06:14:43.517Z,98450.95
2018-02-24T06:17:11.038Z,98460.23
2018-02-24T06:19:38.546Z,98466.05
2018-02-24T06:22:06.078Z,98464.83
2018-02-24T06:24:33.608Z,98469.07
2018-02-24T06:27:01.142Z,98474.70
2018-02-24T06:29:28.669Z,98477.73
2018-02-24T06:31:56.172Z,98474.75
2018-02-24T06:34:23.726Z,98473.53
2018-02-24T06:36:51.332Z,98476.97
2018-02-24T06:39:18.904Z,98471.41
2018-02-24T06:41:46.425Z,98477.53
2018-02-24T06:44:13.999Z,98472.94
2018-02-24T06:46:41.526Z,98476.39
2018-02-24T06:49:09.145Z,98474.29
2018-02-24T06:51:36.681Z,98476.88
2018-02-24T06:54:04.249Z,98479.61
2018-02-24T06:56:31.817Z,98474.13
2018-02-24T06:58:59.316Z,98479.28
2018-02-24T07:01:26.960Z,98468.83
2018-02-24T07:03:54.500Z,98487.72
2018-02-24T07:06:22.065Z,98492.12
2018-02-24T07:08:49.634Z,98487.48
2018-02-24T07:11:17.144Z,98492.42
2018-02-24T07:13:44.713Z,98491.12
2018-02-24T07:16:12.228Z,98493.78
2018-02-24T07:18:39.782Z,98508.03
2018-02-24T07:21:07.305Z,98498.40
2018-02-24T07:23:34.951Z,98503.20
2018-02-24T07:26:02.529Z,98495.19
2018-02-24T07:28:30.041Z,98495.75
2018-02-24T07:30:57.746Z,98506.48
2018-02-24T07:33:25.300Z,98507.94
2018-02-24T07:35:52.867Z,98510.97
2018-02-24T07:38:20.430Z,98515.84
2018-02-24T07:40:47.960Z,98514.23
2018-02-24T07:43:15.508Z,98510.81
2018-02-24T07:45:43.068Z,98514.91
2018-02-24T07:48:10.673Z,98514.11
2018-02-24T07:50:38.213Z,98509.02
2018-02-24T07:53:05.738Z,98509.14
2018-02-24T07:55:33.513Z,98516.45
2018-02-24T07:58:01.025Z,98522.52
2018-02-24T08:00:28.535Z,98530.70
2018-02-24T08:02:56.106Z,98536.39
2018-02-24T08:20:00.842Z,98537.59
2018-02-24T08:22:28.401Z,98540.63
2018-02-24T08:24:56.059Z,98546.14
2018-02-24T08:27:23.594Z,98534.36
2018-02-24T08:29:51.127Z,98526.34
2018-02-24T08:32:18.640Z,98528.09
2018-02-24T08:34:46.315Z,98535.35
2018-02-24T08:37:13.919Z,98528.13
2018-02-24T08:39:43.582Z,98543.55
2018-02-24T08:42:11.126Z,98540.66
2018-02-24T08:44:38.836Z,98541.67
2018-02-24T08:47:06.389Z,98538.63
2018-02-24T08:49:33.922Z,98536.58
2018-02-24T08:52:01.442Z,98539.64
2018-02-24T08:54:29.022Z,98538.34
2018-02-24T08:56:56.886Z,98542.66
2018-02-24T08:59:24.446Z,98535.02
2018-02-24T09:01:51.957Z,98536.80
2018-02-24T09:04:19.551Z,98540.27
2018-02-24T09:06:47.131Z,98530.81
2018-02-24T09:09:14.702Z,98536.43
2018-02-24T09:11:42.221Z,98534.34
2018-02-24T09:14:09.846Z,98530.52
2018-02-24T09:16:37.406Z,98528.38
2018-02-24T09:19:16.486Z,98529.68
2018-02-24T09:21:44.089Z,98534.02
2018-02-24T09:24:11.589Z,98531.86
2018-02-24T09:26:39.083Z,98524.58
2018-02-24T09:29:06.634Z,98533.59
2018-02-24T09:31:34.152Z,98533.59
2018-02-24T09:34:01.785Z,98541.31
2018-02-24T09:36:29.306Z,98542.16
2018-02-24T09:38:56.842Z,98541.34
2018-02-24T09:41:24.332Z,98541.33
2018-02-24T09:43:51.904Z,98535.31
2018-02-24T09:46:19.579Z,98536.59
2018-02-24T09:48:47.192Z,98534.04
2018-02-24T09:51:14.748Z,98534.02
2018-02-24T09:53:42.351Z,98529.69
2018-02-24T09:56:09.936Z,98537.87
2018-02-24T09:58:37.540Z,98525.78
2018-02-24T10:01:07.329Z,98532.23
2018-02-24T10:03:35.047Z,98538.25
2018-02-24T10:06:02.577Z,98523.62
2018-02-24T10:08:30.179Z,98515.45
2018-02-24T10:10:57.673Z,98523.16
2018-02-24T10:13:25.178Z,98520.59
2018-02-24T10:15:52.711Z,98523.59
2018-02-24T10:18:21.679Z,98523.55
2018-02-24T10:20:49.291Z,98526.98
2018-02-24T10:23:16.852Z,98529.61
2018-02-24T10:25:44.521Z,98525.25
2018-02-24T10:28:12.048Z,98527.80
2018-02-24T10:30:39.685Z,98515.28
2018-02-24T10:33:07.208Z,98524.31
2018-02-24T10:35:34.723Z,98516.92
2018-02-24T10:38:02.234Z,98522.03
2018-02-24T10:40:29.876Z,98516.70
2018-02-24T10:42:57.439Z,98514.06
2018-02-24T10:45:24.967Z,98509.83
2018-02-24T10:47:52.473Z,98509.80
2018-02-24T10:50:19.962Z,98505.83
2018-02-24T10:52:47.472Z,98506.29
2018-02-24T10:55:14.972Z,98502.32
2018-02-24T10:57:42.485Z,98500.52
2018-02-24T11:00:10.124Z,98500.01
2018-02-24T11:02:37.672Z,98499.83
2018-02-24T11:05:05.199Z,98493.38
2018-02-24T11:07:32.797Z,98488.88
2018-02-24T11:10:00.631Z,98491.55
2018-02-24T11:12:28.160Z,98474.66
2018-02-24T11:14:55.663Z,98478.52
2018-02-24T11:17:23.162Z,98479.38
2018-02-24T11:19:50.852Z,98478.77
2018-02-24T11:22:18.617Z,98468.75
2018-02-24T11:24:46.134Z,98466.59
2018-02-24T11:27:13.666Z,98457.15
2018-02-24T11:29:41.221Z,98464.77
2018-02-24T11:32:08.729Z,98463.88
2018-02-24T11:34:36.314Z,98462.67
2018-02-24T11:37:03.952Z,98469.00
2018-02-24T11:39:37.026Z,98456.47
2018-02-24T11:42:04.537Z,98455.41
2018-02-24T11:44:32.056Z,98457.86
2018-02-24T11:46:59.611Z,98455.13
2018-02-24T11:49:27.114Z,98459.39
2018-02-24T11:51:54.636Z,98453.05
2018-02-24T11:54:22.184Z,98456.63
2018-02-24T11:56:49.796Z,98458.04
2018-02-24T11:59:17.369Z,98455.20
2018-02-24T12:01:44.868Z,98452.77
2018-02-24T12:04:12.391Z,98452.98
2018-02-24T12:06:39.871Z,98450.25
2018-02-24T12:09:07.409Z,98444.47
2018-02-24T12:11:34.958Z,98449.38
2018-02-24T12:14:02.482Z,98443.04
2018-02-24T12:16:29.992Z,98435.70
2018-02-24T12:18:57.531Z,98439.95
2018-02-24T12:21:25.049Z,98423.69
2018-02-24T12:26:45.712Z,98425.64
2018-02-24T12:34:59.165Z,98408.42
2018-02-24T12:37:26.658Z,98405.73
2018-02-24T12:39:54.186Z,98395.58
2018-02-24T12:42:21.691Z,98393.81
2018-02-24T12:44:49.178Z,98405.00
2018-02-24T12:47:16.745Z,98400.48
2018-02-24T12:49:44.306Z,98390.47
2018-02-24T12:52:11.825Z,98386.67
2018-02-24T12:54:39.340Z,98381.80
2018-02-24T12:57:07.863Z,98384.47
2018-02-24T12:59:35.356Z,98387.95
2018-02-24T13:02:02.869Z,98389.11
2018-02-24T13:04:31.406Z,98384.83
2018-02-24T13:06:58.982Z,98385.06
2018-02-24T13:09:26.490Z,98371.30
2018-02-24T13:11:53.986Z,98362.47
2018-02-24T13:14:21.502Z,98363.15
2018-02-24T13:16:48.996Z,98374.80
2018-02-24T13:19:16.644Z,98381.39
2018-02-24T13:22:05.376Z,98363.03
2018-02-24T13:24:43.077Z,98367.50
2018-02-24T13:27:17.010Z,98380.48
2018-02-24T13:29:48.932Z,98376.41
2018-02-24T13:32:22.159Z,98381.39
2018-02-24T13:34:55.162Z,98391.61
2018-02-24T13:37:23.198Z,98387.41
2018-02-24T13:40:04.151Z,98385.67
2018-02-24T13:42:32.274Z,98384.91
2018-02-24T13:45:01.087Z,98377.53
2018-02-24T13:47:32.386Z,98379.11
2018-02-24T13:50:00.188Z,98374.16
2018-02-24T13:55:05.080Z,98381.66
2018-02-24T13:57:46.591Z,98386.97
2018-02-24T14:00:17.371Z,98377.18
2018-02-24T14:02:45.199Z,98377.47
2018-02-24T14:05:13.816Z,98376.19
2018-02-24T14:07:43.866Z,98388.09
2018-02-24T14:10:14.549Z,98387.68
2018-02-24T14:12:42.524Z,98379.80
2018-02-24T14:15:37.665Z,98381.70
2018-02-24T14:18:08.389Z,98384.87
2018-02-24T14:20:36.130Z,98393.53
2018-02-24T14:23:03.949Z,98384.38
2018-02-24T14:25:31.665Z,98388.76
2018-02-24T14:28:09.066Z,98388.02
2018-02-24T14:30:36.774Z,98386.81
2018-02-24T14:33:04.300Z,98381.48
2018-02-24T14:35:31.881Z,98389.49
2018-02-24T14:37:59.394Z,98383.78
2018-02-24T14:40:27.108Z,98390.01
2018-02-24T14:42:54.610Z,98383.69
2018-02-24T14:45:22.186Z,98386.60
2018-02-24T14:47:49.705Z,98391.05
2018-02-24T14:50:17.226Z,98388.22
2018-02-24T14:52:44.727Z,98392.00
2018-02-24T14:55:12.251Z,98393.72
2018-02-24T14:57:39.774Z,98393.14
2018-02-24T15:00:07.346Z,98396.65
2018-02-24T15:02:34.845Z,98396.67
2018-02-24T15:05:02.381Z,98413.53
2018-02-24T15:07:30.019Z,98403.09
2018-02-24T15:09:57.513Z,98406.99
2018-02-24T15:12:25.009Z,98416.64
2018-02-24T15:14:52.514Z,98408.98
2018-02-24T15:17:20.046Z,98410.23
2018-02-24T15:19:47.564Z,98429.70
2018-02-24T15:22:15.089Z,98431.41
2018-02-24T15:24:42.617Z,98427.38
2018-02-24T15:27:10.161Z,98441.16
2018-02-24T15:29:38.895Z,98441.01
2018-02-24T15:32:06.641Z,98442.45
2018-02-24T15:34:34.288Z,98448.59
2018-02-24T15:37:01.790Z,98449.02
2018-02-24T15:39:29.301Z,98448.97
2018-02-24T15:41:56.788Z,98462.48
2018-02-24T15:44:24.308Z,98455.31
2018-02-24T15:46:51.992Z,98467.13
2018-02-24T15:49:19.563Z,98469.54
2018-02-24T15:51:49.061Z,98464.53
2018-02-24T15:57:04.234Z,98477.37
2018-02-24T15:59:32.428Z,98483.26
2018-02-24T16:02:00.099Z,98494.39
2018-02-24T16:04:27.783Z,98505.85
2018-02-24T16:06:55.308Z,98504.73
2018-02-24T16:09:22.940Z,98502.41
2018-02-24T16:11:50.630Z,98500.85
2018-02-24T16:14:18.203Z,98512.66
2018-02-24T16:16:46.094Z,98504.39
2018-02-24T16:19:16.574Z,98502.53
2018-02-24T16:21:44.197Z,98516.62
2018-02-24T16:24:13.412Z,98515.85
2018-02-24T16:26:41.259Z,98522.65
2018-02-24T16:29:08.744Z,98521.46
2018-02-24T16:31:36.240Z,98521.58
2018-02-24T16:34:04.799Z,98530.29
2018-02-24T16:36:32.739Z,98531.69
2018-02-24T16:39:00.999Z,98533.89
2018-02-24T16:41:28.489Z,98529.28
2018-02-24T16:43:55.999Z,98540.93
2018-02-24T16:46:24.802Z,98536.32
2018-02-24T16:48:52.464Z,98543.70
2018-02-24T16:51:20.054Z,98538.56
2018-02-24T16:53:47.617Z,98555.84
2018-02-24T16:56:15.181Z,98551.55
2018-02-24T16:58:42.760Z,98557.62
2018-02-24T17:01:11.129Z,98556.33
2018-02-24T17:03:40.340Z,98565.39
2018-02-24T17:06:08.210Z,98570.13
2018-02-24T17:08:41.370Z,98577.02
2018-02-24T17:11:23.946Z,98574.00
2018-02-24T17:13:58.063Z,98584.75
2018-02-24T17:19:25.983Z,98604.05
2018-02-24T17:21:56.511Z,98600.17
2018-02-24T17:24:55.495Z,98609.59
2018-02-24T17:27:26.397Z,98603.12
2018-02-24T17:30:05.481Z,98609.15
2018-02-24T17:32:48.994Z,98614.29
2018-02-24T17:35:27.461Z,98620.69
2018-02-24T17:38:05.257Z,98625.39
2018-02-24T17:40:54.772Z,98624.92
2018-02-24T17:43:50.050Z,98627.06
2018-02-24T17:46:23.421Z,98642.96
2018-02-24T17:54:46.941Z,98640.30
2018-02-24T17:57:19.981Z,98642.85
2018-02-24T17:59:51.949Z,98641.14
2018-02-24T18:11:38.971Z,98654.38
2018-02-24T18:17:11.663Z,98657.75
2018-02-24T18:19:54.929Z,98664.97
2018-02-24T18:22:23.672Z,98669.25
2018-02-24T18:25:10.540Z,98675.25
2018-02-24T18:30:32.581Z,98673.42
2018-02-24T18:33:01.713Z,98678.97
2018-02-24T18:35:29.641Z,98672.50
2018-02-24T18:37:57.655Z,98679.83
2018-02-24T18:40:25.358Z,98675.08
2018-02-24T18:42:54.208Z,98677.61
2018-02-24T18:45:24.787Z,98683.61
2018-02-24T18:47:59.727Z,98681.87
2018-02-24T18:50:32.464Z,98685.29
2018-02-24T18:53:01.431Z,98687.81
2018-02-24T18:55:29.541Z,98685.22
2018-02-24T18:57:57.350Z,98677.95
2018-02-24T19:00:25.579Z,98683.91
2018-02-24T19:02:59.846Z,98682.61
2018-02-24T19:05:27.381Z,98692.44
2018-02-24T19:07:54.913Z,98687.67
2018-02-24T19:10:22.523Z,98689.31
2018-02-24T19:12:50.117Z,98691.85
2018-02-24T19:15:17.724Z,98697.02
2018-02-24T19:17:45.277Z,98705.56
2018-02-24T19:20:12.788Z,98701.64
2018-02-24T19:22:40.320Z,98699.51
2018-02-24T19:25:07.962Z,98696.04
2018-02-24T19:27:35.493Z,98699.41
2018-02-24T19:30:03.040Z,98699.83
2018-02-24T19:32:54.331Z,98705.81
2018-02-24T19:35:23.272Z,98701.13
2018-02-24T19:37:50.806Z,98694.69
2018-02-24T19:40:18.410Z,98701.94
2018-02-24T19:42:45.995Z,98704.52
2018-02-24T19:45:14.003Z,98705.34
2018-02-24T19:47:44.906Z,98703.66
2018-02-24T19:50:15.070Z,98698.89
2018-02-24T19:52:45.656Z,98710.84
2018-02-24T19:55:13.479Z,98712.52
2018-02-24T19:57:41.990Z,98714.09
2018-02-24T20:00:09.917Z,98716.58
2018-02-24T20:02:37.770Z,98718.77
2018-02-24T20:05:10.728Z,98718.75
2018-02-24T20:07:40.075Z,98726.37
2018-02-24T20:10:07.662Z,98719.12
2018-02-24T20:12:35.371Z,98726.80
2018-02-24T20:15:06.021Z,98721.19
2018-02-24T20:17:33.932Z,98726.37
2018-02-24T20:20:01.461Z,98734.91
2018-02-24T20:22:28.970Z,98733.94
2018-02-24T20:24:56.471Z,98730.05
2018-02-24T20:27:24.025Z,98743.29
2018-02-24T20:29:51.597Z,98741.09
2018-02-24T20:32:19.222Z,98739.77
2018-02-24T20:34:46.918Z,98737.59
2018-02-24T20:37:14.430Z,98739.30
2018-02-24T20:39:41.966Z,98749.98
2018-02-24T20:42:09.515Z,98737.95
2018-02-24T20:44:37.041Z,98746.02
2018-02-24T20:47:04.554Z,98746.00
2018-02-24T20:49:32.998Z,98750.31
2018-02-24T20:52:00.546Z,98751.53
2018-02-24T20:54:29.038Z,98760.00
2018-02-24T20:56:56.550Z,98762.58
2018-02-24T20:59:24.057Z,98761.28
2018-02-24T21:01:51.564Z,98761.17
2018-02-24T21:04:19.086Z,98763.25
2018-02-24T21:06:46.629Z,98761.91
2018-02-24T21:09:14.375Z,98761.43
2018-02-24T21:11:41.876Z,98771.31
2018-02-24T21:14:09.559Z,98760.11
2018-02-24T21:16:37.159Z,98774.69
2018-02-24T21:19:04.663Z,98778.89
2018-02-24T21:21:32.217Z,98780.14
2018-02-24T21:23:59.764Z,98788.16
2018-02-24T21:26:27.360Z,98784.23
2018-02-24T21:28:54.866Z,98773.19
2018-02-24T21:31:22.397Z,98785.52
2018-02-24T21:33:50.010Z,98773.84
2018-02-24T21:36:17.516Z,98777.59
2018-02-24T21:38:45.712Z,98778.10
2018-02-24T21:41:13.347Z,98780.20
2018-02-24T21:43:40.942Z,98786.16
2018-02-24T21:46:08.479Z,98787.05
2018-02-24T21:48:36.069Z,98781.90
2018-02-24T21:51:03.624Z,98784.73
2018-02-24T21:53:31.254Z,98789.05
2018-02-24T21:55:59.851Z,98784.71
2018-02-24T21:58:27.510Z,98781.67
2018-02-24T22:00:55.012Z,98790.34
2018-02-24T22:03:22.800Z,98794.14
2018-02-24T22:05:50.706Z,98796.64
2018-02-24T22:08:18.269Z,98788.47
2018-02-24T22:10:45.766Z,98799.98
2018-02-24T22:13:13.348Z,98804.52
2018-02-24T22:15:40.944Z,98803.18
2018-02-24T22:18:08.680Z,98810.76
2018-02-24T22:20:36.400Z,98803.87
2018-02-24T22:23:03.929Z,98822.16
2018-02-24T22:25:32.421Z,98814.41
2018-02-24T22:28:00.081Z,98818.14
2018-02-24T22:30:27.687Z,98809.48
2018-02-24T22:32:55.209Z,98816.27
2018-02-24T22:35:22.731Z,98817.06
2018-02-24T22:37:50.414Z,98827.30
2018-02-24T22:40:17.961Z,98828.45
2018-02-24T22:42:45.661Z,98830.49
2018-02-24T22:45:13.255Z,98840.05
2018-02-24T22:47:46.243Z,98837.07
2018-02-24T22:50:13.786Z,98829.70
2018-02-24T22:52:42.205Z,98833.47
2018-02-24T22:55:12.529Z,98851.70
2018-02-24T22:57:40.820Z,98848.59
2018-02-24T23:00:12.217Z,98849.31
2018-02-24T23:03:02.320Z,98853.34
2018-02-24T23:05:29.900Z,98849.84
2018-02-24T23:07:57.559Z,98855.32
2018-02-24T23:10:25.210Z,98856.09
2018-02-24T23:12:53.810Z,98852.66
2018-02-24T23:15:21.637Z,98852.62
2018-02-24T23:17:49.319Z,98850.31
2018-02-24T23:20:16.926Z,98856.59
2018-02-24T23:22:44.761Z,98858.67
2018-02-24T23:25:13.105Z,98848.28
2018-02-24T23:27:43.385Z,98855.06
2018-02-24T23:30:10.983Z,98856.59
2018-02-24T23:32:38.558Z,98847.14
2018-02-24T23:35:06.424Z,98848.75
2018-02-24T23:37:34.326Z,98844.77
2018-02-24T23:40:02.567Z,98837.13
2018-02-24T23:42:31.331Z,98848.07
2018-02-24T23:44:59.914Z,98862.90
2018-02-24T23:47:27.616Z,98852.97
2018-02-24T23:49:55.495Z,98853.64
2018-02-24T23:52:23.066Z,98846.05
2018-02-24T23:54:50.615Z,98851.14
2018-02-24T23:57:18.117Z,98855.68
2018-02-24T23:59:45.818Z,98853.09
